sensor_id;sensor_type;location;lat;lon;timestamp;P1;durP1;ratioP1;P2;durP2;ratioP2
58950;SDS011;44730;53.158;6.398;2022-10-22T00:00:05;13.02;;;9.23;;
58950;SDS011;44730;53.158;6.398;2022-10-22T00:02:34;12.75;;;9.40;;
58950;SDS011;44730;53.158;6.398;2022-10-22T00:04:59;16.33;;;9.07;;
58950;SDS011;44730;53.158;6.398;2022-10-22T00:07:25;15.45;;;9.25;;
58950;SDS011;44730;53.158;6.398;2022-10-22T00:09:51;13.05;;;8.40;;
58950;SDS011;44730;53.158;6.398;2022-10-22T00:12:17;14.55;;;9.40;;
58950;SDS011;44730;53.158;6.398;2022-10-22T00:14:43;12.13;;;8.73;;
58950;SDS011;44730;53.158;6.398;2022-10-22T00:17:09;12.35;;;8.85;;
58950;SDS011;44730;53.158;6.398;2022-10-22T00:19:35;11.88;;;9.27;;
58950;SDS011;44730;53.158;6.398;2022-10-22T00:22:01;11.52;;;8.85;;
58950;SDS011;44730;53.158;6.398;2022-10-22T00:24:29;17.23;;;8.73;;
58950;SDS011;44730;53.158;6.398;2022-10-22T00:26:56;16.15;;;9.40;;
58950;SDS011;44730;53.158;6.398;2022-10-22T00:29:22;14.65;;;9.38;;
58950;SDS011;44730;53.158;6.398;2022-10-22T00:31:48;12.60;;;8.80;;
58950;SDS011;44730;53.158;6.398;2022-10-22T00:34:18;11.90;;;8.63;;
58950;SDS011;44730;53.158;6.398;2022-10-22T00:36:45;11.63;;;7.95;;
58950;SDS011;44730;53.158;6.398;2022-10-22T00:39:16;18.88;;;8.80;;
58950;SDS011;44730;53.158;6.398;2022-10-22T00:41:43;12.20;;;9.13;;
58950;SDS011;44730;53.158;6.398;2022-10-22T00:47:14;13.27;;;9.43;;
58950;SDS011;44730;53.158;6.398;2022-10-22T00:49:41;14.07;;;8.57;;
58950;SDS011;44730;53.158;6.398;2022-10-22T00:52:08;17.38;;;9.70;;
58950;SDS011;44730;53.158;6.398;2022-10-22T00:54:35;11.57;;;8.85;;
58950;SDS011;44730;53.158;6.398;2022-10-22T00:57:02;12.45;;;8.82;;
58950;SDS011;44730;53.158;6.398;2022-10-22T00:59:28;14.07;;;8.48;;
58950;SDS011;44730;53.158;6.398;2022-10-22T01:01:55;12.77;;;8.90;;
58950;SDS011;44730;53.158;6.398;2022-10-22T01:04:21;16.42;;;9.25;;
58950;SDS011;44730;53.158;6.398;2022-10-22T01:06:47;14.43;;;8.82;;
58950;SDS011;44730;53.158;6.398;2022-10-22T01:20:49;13.02;;;8.85;;
58950;SDS011;44730;53.158;6.398;2022-10-22T01:26:25;13.05;;;8.52;;
58950;SDS011;44730;53.158;6.398;2022-10-22T01:29:21;11.70;;;8.07;;
58950;SDS011;44730;53.158;6.398;2022-10-22T01:32:01;14.13;;;9.05;;
58950;SDS011;44730;53.158;6.398;2022-10-22T01:34:35;11.85;;;8.70;;
58950;SDS011;44730;53.158;6.398;2022-10-22T01:37:04;10.55;;;8.10;;
58950;SDS011;44730;53.158;6.398;2022-10-22T01:39:30;13.23;;;8.60;;
58950;SDS011;44730;53.158;6.398;2022-10-22T01:41:57;14.68;;;8.70;;
58950;SDS011;44730;53.158;6.398;2022-10-22T01:44:28;19.90;;;8.77;;
58950;SDS011;44730;53.158;6.398;2022-10-22T01:47:06;11.30;;;8.00;;
58950;SDS011;44730;53.158;6.398;2022-10-22T01:49:43;10.73;;;8.05;;
58950;SDS011;44730;53.158;6.398;2022-10-22T01:54:52;10.43;;;7.45;;
58950;SDS011;44730;53.158;6.398;2022-10-22T02:00:17;13.25;;;7.97;;
58950;SDS011;44730;53.158;6.398;2022-10-22T02:05:29;11.90;;;7.50;;
58950;SDS011;44730;53.158;6.398;2022-10-22T02:08:06;10.65;;;7.57;;
58950;SDS011;44730;53.158;6.398;2022-10-22T02:10:35;13.20;;;8.27;;
58950;SDS011;44730;53.158;6.398;2022-10-22T02:13:03;11.73;;;8.07;;
58950;SDS011;44730;53.158;6.398;2022-10-22T02:15:38;11.57;;;8.60;;
58950;SDS011;44730;53.158;6.398;2022-10-22T02:18:05;15.07;;;8.23;;
58950;SDS011;44730;53.158;6.398;2022-10-22T02:20:33;12.40;;;8.65;;
58950;SDS011;44730;53.158;6.398;2022-10-22T02:23:01;14.13;;;8.50;;
58950;SDS011;44730;53.158;6.398;2022-10-22T02:25:29;13.93;;;8.48;;
58950;SDS011;44730;53.158;6.398;2022-10-22T02:28:02;14.30;;;7.93;;
58950;SDS011;44730;53.158;6.398;2022-10-22T02:30:36;13.65;;;8.25;;
58950;SDS011;44730;53.158;6.398;2022-10-22T02:33:09;12.23;;;6.95;;
58950;SDS011;44730;53.158;6.398;2022-10-22T02:35:39;17.80;;;8.65;;
58950;SDS011;44730;53.158;6.398;2022-10-22T02:38:05;10.75;;;8.10;;
58950;SDS011;44730;53.158;6.398;2022-10-22T02:40:33;12.32;;;8.48;;
58950;SDS011;44730;53.158;6.398;2022-10-22T02:42:58;14.00;;;8.50;;
58950;SDS011;44730;53.158;6.398;2022-10-22T02:45:24;11.48;;;8.07;;
58950;SDS011;44730;53.158;6.398;2022-10-22T02:47:50;10.80;;;8.13;;
58950;SDS011;44730;53.158;6.398;2022-10-22T02:50:16;12.52;;;7.93;;
58950;SDS011;44730;53.158;6.398;2022-10-22T02:52:42;14.30;;;8.02;;
58950;SDS011;44730;53.158;6.398;2022-10-22T02:55:08;14.68;;;8.52;;
58950;SDS011;44730;53.158;6.398;2022-10-22T02:57:34;13.65;;;7.97;;
58950;SDS011;44730;53.158;6.398;2022-10-22T02:59:59;12.65;;;8.13;;
58950;SDS011;44730;53.158;6.398;2022-10-22T03:02:25;12.88;;;8.25;;
58950;SDS011;44730;53.158;6.398;2022-10-22T03:04:50;13.27;;;7.80;;
58950;SDS011;44730;53.158;6.398;2022-10-22T03:07:16;12.88;;;7.78;;
58950;SDS011;44730;53.158;6.398;2022-10-22T03:09:42;14.10;;;8.25;;
58950;SDS011;44730;53.158;6.398;2022-10-22T03:12:07;11.27;;;8.10;;
58950;SDS011;44730;53.158;6.398;2022-10-22T03:14:34;13.90;;;8.70;;
58950;SDS011;44730;53.158;6.398;2022-10-22T03:16:59;13.73;;;8.20;;
58950;SDS011;44730;53.158;6.398;2022-10-22T03:19:25;14.00;;;8.43;;
58950;SDS011;44730;53.158;6.398;2022-10-22T03:24:37;14.73;;;8.90;;
58950;SDS011;44730;53.158;6.398;2022-10-22T03:27:06;12.55;;;7.82;;
58950;SDS011;44730;53.158;6.398;2022-10-22T03:29:33;14.13;;;8.50;;
58950;SDS011;44730;53.158;6.398;2022-10-22T03:32:01;11.88;;;8.07;;
58950;SDS011;44730;53.158;6.398;2022-10-22T03:34:27;12.35;;;7.63;;
58950;SDS011;44730;53.158;6.398;2022-10-22T03:36:53;12.93;;;9.10;;
58950;SDS011;44730;53.158;6.398;2022-10-22T03:39:21;12.90;;;8.65;;
58950;SDS011;44730;53.158;6.398;2022-10-22T03:41:48;17.27;;;8.13;;
58950;SDS011;44730;53.158;6.398;2022-10-22T03:44:15;13.68;;;8.63;;
58950;SDS011;44730;53.158;6.398;2022-10-22T03:46:42;12.77;;;8.15;;
58950;SDS011;44730;53.158;6.398;2022-10-22T03:49:08;13.32;;;9.15;;
58950;SDS011;44730;53.158;6.398;2022-10-22T03:51:37;14.23;;;9.38;;
58950;SDS011;44730;53.158;6.398;2022-10-22T03:54:02;12.68;;;8.57;;
58950;SDS011;44730;53.158;6.398;2022-10-22T03:56:28;14.65;;;8.82;;
58950;SDS011;44730;53.158;6.398;2022-10-22T03:58:55;14.68;;;8.85;;
58950;SDS011;44730;53.158;6.398;2022-10-22T04:01:22;12.10;;;8.27;;
58950;SDS011;44730;53.158;6.398;2022-10-22T04:03:48;13.10;;;9.15;;
58950;SDS011;44730;53.158;6.398;2022-10-22T04:06:14;14.05;;;9.00;;
58950;SDS011;44730;53.158;6.398;2022-10-22T04:08:40;14.68;;;8.90;;
58950;SDS011;44730;53.158;6.398;2022-10-22T04:11:07;16.98;;;9.05;;
58950;SDS011;44730;53.158;6.398;2022-10-22T04:13:34;13.80;;;8.88;;
58950;SDS011;44730;53.158;6.398;2022-10-22T04:18:36;13.60;;;8.70;;
58950;SDS011;44730;53.158;6.398;2022-10-22T04:21:02;15.13;;;9.13;;
58950;SDS011;44730;53.158;6.398;2022-10-22T04:23:28;13.63;;;9.05;;
58950;SDS011;44730;53.158;6.398;2022-10-22T04:25:57;14.10;;;8.98;;
58950;SDS011;44730;53.158;6.398;2022-10-22T04:28:28;11.38;;;8.90;;
58950;SDS011;44730;53.158;6.398;2022-10-22T04:30:53;14.13;;;8.70;;
58950;SDS011;44730;53.158;6.398;2022-10-22T04:33:19;14.70;;;9.32;;
58950;SDS011;44730;53.158;6.398;2022-10-22T04:35:45;13.73;;;9.02;;
58950;SDS011;44730;53.158;6.398;2022-10-22T04:38:11;15.00;;;9.30;;
58950;SDS011;44730;53.158;6.398;2022-10-22T04:40:37;14.48;;;9.52;;
58950;SDS011;44730;53.158;6.398;2022-10-22T04:43:02;13.48;;;9.63;;
58950;SDS011;44730;53.158;6.398;2022-10-22T04:45:29;13.68;;;8.57;;
58950;SDS011;44730;53.158;6.398;2022-10-22T04:47:54;14.80;;;8.77;;
58950;SDS011;44730;53.158;6.398;2022-10-22T04:50:20;14.13;;;8.48;;
58950;SDS011;44730;53.158;6.398;2022-10-22T04:52:46;14.25;;;8.38;;
58950;SDS011;44730;53.158;6.398;2022-10-22T04:55:12;20.40;;;9.32;;
58950;SDS011;44730;53.158;6.398;2022-10-22T04:57:37;15.50;;;8.40;;
58950;SDS011;44730;53.158;6.398;2022-10-22T05:00:03;12.88;;;8.65;;
58950;SDS011;44730;53.158;6.398;2022-10-22T05:02:29;13.70;;;9.40;;
58950;SDS011;44730;53.158;6.398;2022-10-22T05:04:55;13.52;;;8.70;;
58950;SDS011;44730;53.158;6.398;2022-10-22T05:07:21;16.13;;;9.40;;
58950;SDS011;44730;53.158;6.398;2022-10-22T05:09:48;11.13;;;8.43;;
58950;SDS011;44730;53.158;6.398;2022-10-22T05:12:13;15.82;;;9.45;;
58950;SDS011;44730;53.158;6.398;2022-10-22T05:14:39;13.25;;;8.90;;
58950;SDS011;44730;53.158;6.398;2022-10-22T05:17:05;12.65;;;8.93;;
58950;SDS011;44730;53.158;6.398;2022-10-22T05:19:31;12.35;;;9.00;;
58950;SDS011;44730;53.158;6.398;2022-10-22T05:21:58;12.10;;;8.38;;
58950;SDS011;44730;53.158;6.398;2022-10-22T05:24:26;15.82;;;9.63;;
58950;SDS011;44730;53.158;6.398;2022-10-22T05:26:54;20.58;;;9.88;;
58950;SDS011;44730;53.158;6.398;2022-10-22T05:29:23;18.75;;;9.00;;
58950;SDS011;44730;53.158;6.398;2022-10-22T05:31:49;19.23;;;9.30;;
58950;SDS011;44730;53.158;6.398;2022-10-22T05:34:15;13.75;;;9.02;;
58950;SDS011;44730;53.158;6.398;2022-10-22T05:36:41;17.85;;;10.02;;
58950;SDS011;44730;53.158;6.398;2022-10-22T05:39:07;14.32;;;9.02;;
58950;SDS011;44730;53.158;6.398;2022-10-22T05:41:33;14.13;;;9.82;;
58950;SDS011;44730;53.158;6.398;2022-10-22T05:43:59;15.40;;;9.18;;
58950;SDS011;44730;53.158;6.398;2022-10-22T05:46:26;14.48;;;8.98;;
58950;SDS011;44730;53.158;6.398;2022-10-22T05:48:54;11.43;;;8.02;;
58950;SDS011;44730;53.158;6.398;2022-10-22T05:51:22;17.02;;;8.73;;
58950;SDS011;44730;53.158;6.398;2022-10-22T05:53:52;15.95;;;8.70;;
58950;SDS011;44730;53.158;6.398;2022-10-22T05:56:19;13.07;;;8.32;;
58950;SDS011;44730;53.158;6.398;2022-10-22T05:58:45;12.52;;;8.80;;
58950;SDS011;44730;53.158;6.398;2022-10-22T06:01:13;17.92;;;9.20;;
58950;SDS011;44730;53.158;6.398;2022-10-22T06:03:40;11.60;;;8.07;;
58950;SDS011;44730;53.158;6.398;2022-10-22T06:06:11;14.70;;;8.80;;
58950;SDS011;44730;53.158;6.398;2022-10-22T06:08:48;13.25;;;8.63;;
58950;SDS011;44730;53.158;6.398;2022-10-22T06:11:16;14.13;;;8.80;;
58950;SDS011;44730;53.158;6.398;2022-10-22T06:13:44;12.02;;;8.57;;
58950;SDS011;44730;53.158;6.398;2022-10-22T06:16:11;16.42;;;9.27;;
58950;SDS011;44730;53.158;6.398;2022-10-22T06:18:37;13.90;;;8.38;;
58950;SDS011;44730;53.158;6.398;2022-10-22T06:21:07;14.88;;;8.85;;
58950;SDS011;44730;53.158;6.398;2022-10-22T06:23:35;13.32;;;8.52;;
58950;SDS011;44730;53.158;6.398;2022-10-22T06:26:01;15.20;;;9.40;;
58950;SDS011;44730;53.158;6.398;2022-10-22T06:28:27;14.05;;;9.05;;
58950;SDS011;44730;53.158;6.398;2022-10-22T06:30:53;15.73;;;8.65;;
58950;SDS011;44730;53.158;6.398;2022-10-22T06:33:21;18.05;;;9.18;;
58950;SDS011;44730;53.158;6.398;2022-10-22T06:35:47;13.68;;;8.95;;
58950;SDS011;44730;53.158;6.398;2022-10-22T06:38:13;13.95;;;8.57;;
58950;SDS011;44730;53.158;6.398;2022-10-22T06:40:39;15.82;;;9.18;;
58950;SDS011;44730;53.158;6.398;2022-10-22T06:43:07;13.63;;;8.35;;
58950;SDS011;44730;53.158;6.398;2022-10-22T06:45:34;11.52;;;8.32;;
58950;SDS011;44730;53.158;6.398;2022-10-22T06:47:59;14.23;;;8.13;;
58950;SDS011;44730;53.158;6.398;2022-10-22T06:50:25;21.48;;;9.07;;
58950;SDS011;44730;53.158;6.398;2022-10-22T06:52:51;16.08;;;9.07;;
58950;SDS011;44730;53.158;6.398;2022-10-22T06:55:16;12.65;;;8.52;;
58950;SDS011;44730;53.158;6.398;2022-10-22T06:57:42;14.98;;;8.20;;
58950;SDS011;44730;53.158;6.398;2022-10-22T07:00:08;16.27;;;9.82;;
58950;SDS011;44730;53.158;6.398;2022-10-22T07:02:34;10.50;;;7.72;;
58950;SDS011;44730;53.158;6.398;2022-10-22T07:04:59;16.70;;;8.77;;
58950;SDS011;44730;53.158;6.398;2022-10-22T07:07:25;16.73;;;8.63;;
58950;SDS011;44730;53.158;6.398;2022-10-22T07:09:51;16.48;;;8.20;;
58950;SDS011;44730;53.158;6.398;2022-10-22T07:12:16;11.95;;;8.00;;
58950;SDS011;44730;53.158;6.398;2022-10-22T07:14:42;14.07;;;7.80;;
58950;SDS011;44730;53.158;6.398;2022-10-22T07:17:08;13.13;;;7.53;;
58950;SDS011;44730;53.158;6.398;2022-10-22T07:19:34;12.85;;;7.28;;
58950;SDS011;44730;53.158;6.398;2022-10-22T07:22:00;12.43;;;7.40;;
58950;SDS011;44730;53.158;6.398;2022-10-22T07:24:25;10.10;;;6.75;;
58950;SDS011;44730;53.158;6.398;2022-10-22T07:26:51;9.45;;;7.35;;
58950;SDS011;44730;53.158;6.398;2022-10-22T07:29:17;10.50;;;7.00;;
58950;SDS011;44730;53.158;6.398;2022-10-22T07:31:43;11.95;;;7.50;;
58950;SDS011;44730;53.158;6.398;2022-10-22T07:34:08;12.15;;;6.43;;
58950;SDS011;44730;53.158;6.398;2022-10-22T07:36:34;11.43;;;6.70;;
58950;SDS011;44730;53.158;6.398;2022-10-22T07:39:00;11.02;;;6.60;;
58950;SDS011;44730;53.158;6.398;2022-10-22T07:41:27;14.77;;;6.60;;
58950;SDS011;44730;53.158;6.398;2022-10-22T07:43:54;9.70;;;6.28;;
58950;SDS011;44730;53.158;6.398;2022-10-22T07:46:20;7.63;;;6.07;;
58950;SDS011;44730;53.158;6.398;2022-10-22T07:48:46;11.18;;;6.30;;
58950;SDS011;44730;53.158;6.398;2022-10-22T07:51:12;13.00;;;6.93;;
58950;SDS011;44730;53.158;6.398;2022-10-22T07:53:38;9.38;;;5.88;;
58950;SDS011;44730;53.158;6.398;2022-10-22T07:56:04;9.13;;;5.75;;
58950;SDS011;44730;53.158;6.398;2022-10-22T07:58:30;11.13;;;5.63;;
58950;SDS011;44730;53.158;6.398;2022-10-22T08:00:57;8.98;;;6.18;;
58950;SDS011;44730;53.158;6.398;2022-10-22T08:03:25;12.98;;;6.30;;
58950;SDS011;44730;53.158;6.398;2022-10-22T08:05:51;8.75;;;5.53;;
58950;SDS011;44730;53.158;6.398;2022-10-22T08:08:18;11.73;;;5.80;;
58950;SDS011;44730;53.158;6.398;2022-10-22T08:10:45;10.02;;;6.00;;
58950;SDS011;44730;53.158;6.398;2022-10-22T08:13:11;13.20;;;6.03;;
58950;SDS011;44730;53.158;6.398;2022-10-22T08:15:37;10.45;;;5.97;;
58950;SDS011;44730;53.158;6.398;2022-10-22T08:18:03;11.65;;;5.90;;
58950;SDS011;44730;53.158;6.398;2022-10-22T08:20:29;8.65;;;5.70;;
58950;SDS011;44730;53.158;6.398;2022-10-22T08:22:55;11.93;;;5.53;;
58950;SDS011;44730;53.158;6.398;2022-10-22T08:25:20;10.68;;;5.38;;
58950;SDS011;44730;53.158;6.398;2022-10-22T08:27:46;10.27;;;4.57;;
58950;SDS011;44730;53.158;6.398;2022-10-22T08:30:12;6.28;;;4.05;;
58950;SDS011;44730;53.158;6.398;2022-10-22T08:32:38;9.90;;;4.70;;
58950;SDS011;44730;53.158;6.398;2022-10-22T08:35:04;10.05;;;5.25;;
58950;SDS011;44730;53.158;6.398;2022-10-22T08:37:30;10.30;;;4.28;;
58950;SDS011;44730;53.158;6.398;2022-10-22T08:39:56;8.30;;;3.97;;
58950;SDS011;44730;53.158;6.398;2022-10-22T08:50:50;8.23;;;3.30;;
58950;SDS011;44730;53.158;6.398;2022-10-22T08:53:20;7.60;;;3.95;;
58950;SDS011;44730;53.158;6.398;2022-10-22T08:55:51;11.77;;;3.42;;
58950;SDS011;44730;53.158;6.398;2022-10-22T09:01:22;5.88;;;3.28;;
58950;SDS011;44730;53.158;6.398;2022-10-22T09:06:49;8.73;;;4.00;;
58950;SDS011;44730;53.158;6.398;2022-10-22T09:09:16;8.27;;;3.40;;
58950;SDS011;44730;53.158;6.398;2022-10-22T09:11:44;7.20;;;4.13;;
58950;SDS011;44730;53.158;6.398;2022-10-22T09:14:19;8.15;;;4.03;;
58950;SDS011;44730;53.158;6.398;2022-10-22T09:22:13;7.85;;;3.65;;
58950;SDS011;44730;53.158;6.398;2022-10-22T09:27:36;5.90;;;3.45;;
58950;SDS011;44730;53.158;6.398;2022-10-22T09:30:02;6.53;;;3.78;;
58950;SDS011;44730;53.158;6.398;2022-10-22T09:32:28;7.35;;;3.67;;
58950;SDS011;44730;53.158;6.398;2022-10-22T09:34:55;9.27;;;4.72;;
58950;SDS011;44730;53.158;6.398;2022-10-22T09:37:26;7.22;;;3.60;;
58950;SDS011;44730;53.158;6.398;2022-10-22T09:39:54;10.02;;;3.88;;
58950;SDS011;44730;53.158;6.398;2022-10-22T09:42:22;6.55;;;4.07;;
58950;SDS011;44730;53.158;6.398;2022-10-22T09:44:51;5.35;;;3.85;;
58950;SDS011;44730;53.158;6.398;2022-10-22T09:52:38;9.02;;;3.40;;
58950;SDS011;44730;53.158;6.398;2022-10-22T09:55:17;8.55;;;3.83;;
58950;SDS011;44730;53.158;6.398;2022-10-22T09:57:43;9.55;;;4.10;;
58950;SDS011;44730;53.158;6.398;2022-10-22T10:00:19;8.75;;;3.65;;
58950;SDS011;44730;53.158;6.398;2022-10-22T10:02:52;6.40;;;4.25;;
58950;SDS011;44730;53.158;6.398;2022-10-22T10:05:26;5.55;;;4.05;;
58950;SDS011;44730;53.158;6.398;2022-10-22T10:07:57;5.13;;;3.80;;
58950;SDS011;44730;53.158;6.398;2022-10-22T10:10:32;7.68;;;4.30;;
58950;SDS011;44730;53.158;6.398;2022-10-22T10:14:08;8.40;;;4.45;;
58950;SDS011;44730;53.158;6.398;2022-10-22T10:16:43;8.23;;;3.78;;
58950;SDS011;44730;53.158;6.398;2022-10-22T10:21:56;7.82;;;4.03;;
58950;SDS011;44730;53.158;6.398;2022-10-22T10:37:46;10.13;;;4.78;;
58950;SDS011;44730;53.158;6.398;2022-10-22T10:51:21;8.05;;;4.80;;
58950;SDS011;44730;53.158;6.398;2022-10-22T10:56:40;7.30;;;4.70;;
58950;SDS011;44730;53.158;6.398;2022-10-22T10:59:13;12.98;;;4.60;;
58950;SDS011;44730;53.158;6.398;2022-10-22T11:07:21;9.63;;;5.20;;
58950;SDS011;44730;53.158;6.398;2022-10-22T11:10:03;9.55;;;5.25;;
58950;SDS011;44730;53.158;6.398;2022-10-22T11:12:43;7.70;;;5.13;;
58950;SDS011;44730;53.158;6.398;2022-10-22T11:18:42;12.00;;;5.88;;
58950;SDS011;44730;53.158;6.398;2022-10-22T11:23:27;8.73;;;4.93;;
58950;SDS011;44730;53.158;6.398;2022-10-22T11:26:03;8.00;;;5.22;;
58950;SDS011;44730;53.158;6.398;2022-10-22T11:28:43;9.65;;;5.22;;
58950;SDS011;44730;53.158;6.398;2022-10-22T11:31:14;8.27;;;5.30;;
58950;SDS011;44730;53.158;6.398;2022-10-22T11:36:22;9.98;;;5.18;;
58950;SDS011;44730;53.158;6.398;2022-10-22T11:38:50;7.95;;;5.50;;
58950;SDS011;44730;53.158;6.398;2022-10-22T11:41:16;11.77;;;6.47;;
58950;SDS011;44730;53.158;6.398;2022-10-22T11:49:00;12.18;;;6.40;;
58950;SDS011;44730;53.158;6.398;2022-10-22T11:51:35;12.75;;;6.25;;
58950;SDS011;44730;53.158;6.398;2022-10-22T11:54:25;12.25;;;6.85;;
58950;SDS011;44730;53.158;6.398;2022-10-22T11:56:58;10.07;;;5.70;;
58950;SDS011;44730;53.158;6.398;2022-10-22T11:59:43;9.63;;;5.75;;
58950;SDS011;44730;53.158;6.398;2022-10-22T12:04:51;11.68;;;6.50;;
58950;SDS011;44730;53.158;6.398;2022-10-22T12:07:29;12.10;;;6.32;;
58950;SDS011;44730;53.158;6.398;2022-10-22T12:10:03;9.65;;;5.95;;
58950;SDS011;44730;53.158;6.398;2022-10-22T12:12:36;9.75;;;6.50;;
58950;SDS011;44730;53.158;6.398;2022-10-22T12:15:19;8.82;;;5.65;;
58950;SDS011;44730;53.158;6.398;2022-10-22T12:17:55;8.68;;;5.78;;
58950;SDS011;44730;53.158;6.398;2022-10-22T12:20:25;8.00;;;5.45;;
58950;SDS011;44730;53.158;6.398;2022-10-22T12:22:52;10.13;;;5.43;;
58950;SDS011;44730;53.158;6.398;2022-10-22T12:25:22;7.85;;;5.28;;
58950;SDS011;44730;53.158;6.398;2022-10-22T12:27:51;10.25;;;5.95;;
58950;SDS011;44730;53.158;6.398;2022-10-22T12:30:26;8.77;;;4.68;;
58950;SDS011;44730;53.158;6.398;2022-10-22T12:32:55;9.52;;;4.90;;
58950;SDS011;44730;53.158;6.398;2022-10-22T12:35:25;12.20;;;5.00;;
58950;SDS011;44730;53.158;6.398;2022-10-22T12:37:57;10.63;;;5.47;;
58950;SDS011;44730;53.158;6.398;2022-10-22T12:40:26;10.88;;;5.68;;
58950;SDS011;44730;53.158;6.398;2022-10-22T12:42:54;12.88;;;5.95;;
58950;SDS011;44730;53.158;6.398;2022-10-22T12:45:21;8.75;;;4.13;;
58950;SDS011;44730;53.158;6.398;2022-10-22T12:47:50;8.45;;;4.10;;
58950;SDS011;44730;53.158;6.398;2022-10-22T12:50:22;5.35;;;3.75;;
58950;SDS011;44730;53.158;6.398;2022-10-22T12:52:54;8.00;;;3.75;;
58950;SDS011;44730;53.158;6.398;2022-10-22T12:55:23;9.93;;;4.60;;
58950;SDS011;44730;53.158;6.398;2022-10-22T12:57:50;6.65;;;4.18;;
58950;SDS011;44730;53.158;6.398;2022-10-22T13:00:20;6.50;;;3.95;;
58950;SDS011;44730;53.158;6.398;2022-10-22T13:02:51;6.47;;;3.60;;
58950;SDS011;44730;53.158;6.398;2022-10-22T13:05:24;9.15;;;3.70;;
58950;SDS011;44730;53.158;6.398;2022-10-22T13:08:02;7.50;;;3.72;;
58950;SDS011;44730;53.158;6.398;2022-10-22T13:10:32;8.40;;;3.50;;
58950;SDS011;44730;53.158;6.398;2022-10-22T13:13:00;5.50;;;3.00;;
58950;SDS011;44730;53.158;6.398;2022-10-22T13:20:52;5.13;;;2.38;;
58950;SDS011;44730;53.158;6.398;2022-10-22T13:23:23;6.38;;;2.60;;
58950;SDS011;44730;53.158;6.398;2022-10-22T13:26:01;6.03;;;2.38;;
58950;SDS011;44730;53.158;6.398;2022-10-22T13:28:35;5.97;;;2.42;;
58950;SDS011;44730;53.158;6.398;2022-10-22T13:31:02;4.32;;;2.03;;
58950;SDS011;44730;53.158;6.398;2022-10-22T13:33:40;8.10;;;2.85;;
58950;SDS011;44730;53.158;6.398;2022-10-22T13:36:10;5.28;;;2.25;;
58950;SDS011;44730;53.158;6.398;2022-10-22T13:38:39;4.05;;;2.20;;
58950;SDS011;44730;53.158;6.398;2022-10-22T13:41:16;2.92;;;2.05;;
58950;SDS011;44730;53.158;6.398;2022-10-22T13:43:55;5.65;;;2.70;;
58950;SDS011;44730;53.158;6.398;2022-10-22T13:46:21;7.55;;;2.80;;
58950;SDS011;44730;53.158;6.398;2022-10-22T13:48:48;7.18;;;2.78;;
58950;SDS011;44730;53.158;6.398;2022-10-22T13:51:20;7.75;;;3.10;;
58950;SDS011;44730;53.158;6.398;2022-10-22T13:53:49;8.38;;;2.67;;
58950;SDS011;44730;53.158;6.398;2022-10-22T13:56:18;5.60;;;2.65;;
58950;SDS011;44730;53.158;6.398;2022-10-22T13:58:45;5.22;;;2.33;;
58950;SDS011;44730;53.158;6.398;2022-10-22T14:01:19;8.63;;;2.67;;
58950;SDS011;44730;53.158;6.398;2022-10-22T14:03:47;6.85;;;2.17;;
58950;SDS011;44730;53.158;6.398;2022-10-22T14:06:15;5.03;;;3.22;;
58950;SDS011;44730;53.158;6.398;2022-10-22T14:08:42;5.47;;;2.47;;
58950;SDS011;44730;53.158;6.398;2022-10-22T14:11:10;4.07;;;1.90;;
58950;SDS011;44730;53.158;6.398;2022-10-22T14:13:36;5.45;;;2.30;;
58950;SDS011;44730;53.158;6.398;2022-10-22T14:16:02;3.65;;;2.03;;
58950;SDS011;44730;53.158;6.398;2022-10-22T14:18:30;8.02;;;2.15;;
58950;SDS011;44730;53.158;6.398;2022-10-22T14:21:00;4.57;;;1.75;;
58950;SDS011;44730;53.158;6.398;2022-10-22T14:23:32;3.30;;;1.10;;
58950;SDS011;44730;53.158;6.398;2022-10-22T14:25:59;4.20;;;2.25;;
58950;SDS011;44730;53.158;6.398;2022-10-22T14:28:25;3.22;;;1.40;;
58950;SDS011;44730;53.158;6.398;2022-10-22T14:30:51;3.75;;;1.50;;
58950;SDS011;44730;53.158;6.398;2022-10-22T14:33:24;4.70;;;1.98;;
58950;SDS011;44730;53.158;6.398;2022-10-22T14:35:55;5.43;;;1.73;;
58950;SDS011;44730;53.158;6.398;2022-10-22T14:38:21;3.20;;;1.40;;
58950;SDS011;44730;53.158;6.398;2022-10-22T14:40:47;2.38;;;1.10;;
58950;SDS011;44730;53.158;6.398;2022-10-22T14:43:19;4.05;;;1.48;;
58950;SDS011;44730;53.158;6.398;2022-10-22T14:45:46;5.05;;;1.65;;
58950;SDS011;44730;53.158;6.398;2022-10-22T14:48:12;3.78;;;1.58;;
58950;SDS011;44730;53.158;6.398;2022-10-22T14:50:40;4.35;;;1.60;;
58950;SDS011;44730;53.158;6.398;2022-10-22T14:53:06;9.10;;;2.05;;
58950;SDS011;44730;53.158;6.398;2022-10-22T14:55:32;5.20;;;1.60;;
58950;SDS011;44730;53.158;6.398;2022-10-22T14:57:58;4.53;;;2.17;;
58950;SDS011;44730;53.158;6.398;2022-10-22T15:00:24;3.53;;;1.65;;
58950;SDS011;44730;53.158;6.398;2022-10-22T15:02:49;3.75;;;1.67;;
58950;SDS011;44730;53.158;6.398;2022-10-22T15:05:15;6.97;;;1.98;;
58950;SDS011;44730;53.158;6.398;2022-10-22T15:07:42;7.60;;;1.80;;
58950;SDS011;44730;53.158;6.398;2022-10-22T15:10:08;6.03;;;1.80;;
58950;SDS011;44730;53.158;6.398;2022-10-22T15:12:35;8.13;;;2.25;;
58950;SDS011;44730;53.158;6.398;2022-10-22T15:15:01;6.57;;;2.00;;
58950;SDS011;44730;53.158;6.398;2022-10-22T15:17:27;6.82;;;2.25;;
58950;SDS011;44730;53.158;6.398;2022-10-22T15:19:53;5.05;;;2.22;;
58950;SDS011;44730;53.158;6.398;2022-10-22T15:22:20;9.57;;;2.33;;
58950;SDS011;44730;53.158;6.398;2022-10-22T15:24:46;7.60;;;2.63;;
58950;SDS011;44730;53.158;6.398;2022-10-22T15:27:14;7.90;;;2.35;;
58950;SDS011;44730;53.158;6.398;2022-10-22T15:29:40;9.50;;;2.63;;
58950;SDS011;44730;53.158;6.398;2022-10-22T15:32:07;8.65;;;2.88;;
58950;SDS011;44730;53.158;6.398;2022-10-22T15:34:34;11.52;;;2.13;;
58950;SDS011;44730;53.158;6.398;2022-10-22T15:37:02;6.90;;;2.55;;
58950;SDS011;44730;53.158;6.398;2022-10-22T15:39:30;7.20;;;2.22;;
58950;SDS011;44730;53.158;6.398;2022-10-22T15:41:56;11.18;;;2.50;;
58950;SDS011;44730;53.158;6.398;2022-10-22T15:44:23;6.07;;;2.40;;
58950;SDS011;44730;53.158;6.398;2022-10-22T15:46:51;7.43;;;2.60;;
58950;SDS011;44730;53.158;6.398;2022-10-22T15:49:19;6.82;;;2.22;;
58950;SDS011;44730;53.158;6.398;2022-10-22T15:51:45;6.93;;;2.28;;
58950;SDS011;44730;53.158;6.398;2022-10-22T15:54:12;6.35;;;2.40;;
58950;SDS011;44730;53.158;6.398;2022-10-22T15:56:39;25.85;;;2.80;;
58950;SDS011;44730;53.158;6.398;2022-10-22T15:59:05;7.45;;;2.45;;
58950;SDS011;44730;53.158;6.398;2022-10-22T16:01:32;6.78;;;2.67;;
58950;SDS011;44730;53.158;6.398;2022-10-22T16:03:59;10.68;;;2.97;;
58950;SDS011;44730;53.158;6.398;2022-10-22T16:06:39;9.45;;;2.80;;
58950;SDS011;44730;53.158;6.398;2022-10-22T16:09:11;6.75;;;2.70;;
58950;SDS011;44730;53.158;6.398;2022-10-22T16:11:39;10.02;;;2.90;;
58950;SDS011;44730;53.158;6.398;2022-10-22T16:14:05;6.72;;;2.45;;
58950;SDS011;44730;53.158;6.398;2022-10-22T16:16:32;6.72;;;2.67;;
58950;SDS011;44730;53.158;6.398;2022-10-22T16:18:59;10.43;;;3.05;;
58950;SDS011;44730;53.158;6.398;2022-10-22T16:21:25;8.77;;;3.00;;
58950;SDS011;44730;53.158;6.398;2022-10-22T16:23:51;9.20;;;2.50;;
58950;SDS011;44730;53.158;6.398;2022-10-22T16:26:18;10.55;;;2.72;;
58950;SDS011;44730;53.158;6.398;2022-10-22T16:28:45;8.85;;;2.42;;
58950;SDS011;44730;53.158;6.398;2022-10-22T16:31:12;7.30;;;2.55;;
58950;SDS011;44730;53.158;6.398;2022-10-22T16:33:39;8.90;;;3.00;;
58950;SDS011;44730;53.158;6.398;2022-10-22T16:36:06;8.32;;;3.00;;
58950;SDS011;44730;53.158;6.398;2022-10-22T16:38:33;7.63;;;3.22;;
58950;SDS011;44730;53.158;6.398;2022-10-22T16:41:12;10.52;;;3.00;;
58950;SDS011;44730;53.158;6.398;2022-10-22T16:43:38;5.53;;;3.05;;